createdAt,value
2022-12-14T00:00:42.128Z,99907.33
2022-12-14T00:03:11.567Z,99905.48
2022-12-14T00:05:41.121Z,99906.47
2022-12-14T00:08:10.683Z,99907.95
2022-12-14T00:10:40.356Z,99915.02
2022-12-14T00:13:10.776Z,99917.84
2022-12-14T00:15:40.280Z,99920.66
2022-12-14T00:18:09.632Z,99923.34
2022-12-14T00:20:39.356Z,99927.86
2022-12-14T00:23:11.396Z,99923.11
2022-12-14T00:25:42.219Z,99924.46
2022-12-14T00:28:12.066Z,99927.50
2022-12-14T00:30:41.052Z,99925.80
2022-12-14T00:33:10.144Z,99925.58
2022-12-14T00:35:38.839Z,99929.60
2022-12-14T00:38:08.524Z,99931.17
2022-12-14T00:40:38.232Z,99929.34
2022-12-14T00:43:07.347Z,99934.58
2022-12-14T00:45:36.196Z,99937.75
2022-12-14T00:48:06.629Z,99941.42
2022-12-14T00:50:36.468Z,99939.72
2022-12-14T00:53:05.765Z,99948.27
2022-12-14T00:55:39.490Z,99952.20
2022-12-14T00:58:09.008Z,99958.42
2022-12-14T01:00:39.629Z,99953.05
2022-12-14T01:03:08.846Z,99961.20
2022-12-14T01:05:39.174Z,99958.16
2022-12-14T01:08:08.835Z,99957.80
2022-12-14T01:10:40.396Z,99959.77
2022-12-14T01:13:10.967Z,99959.86
2022-12-14T01:15:42.860Z,99960.72
2022-12-14T01:18:12.960Z,99957.91
2022-12-14T01:20:42.195Z,99961.80
2022-12-14T01:23:12.226Z,99963.50
2022-12-14T01:25:41.117Z,99966.91
2022-12-14T01:28:10.663Z,99963.96
2022-12-14T01:30:40.183Z,99974.94
2022-12-14T01:33:09.939Z,99975.42
2022-12-14T01:35:39.038Z,99975.20
2022-12-14T01:38:08.407Z,99982.08
2022-12-14T01:40:37.849Z,99976.83
2022-12-14T01:43:13.774Z,99976.59
2022-12-14T01:45:43.329Z,99991.99
2022-12-14T01:48:13.029Z,99987.86
2022-12-14T01:50:44.280Z,99990.94
2022-12-14T01:53:20.477Z,100000.74
2022-12-14T01:55:53.273Z,99996.11
2022-12-14T01:58:25.305Z,100001.39
2022-12-14T02:00:56.169Z,99995.68
2022-12-14T02:03:30.012Z,99996.55
2022-12-14T02:06:14.138Z,100001.32
2022-12-14T02:08:43.478Z,100003.64
2022-12-14T02:11:13.328Z,100011.33
2022-12-14T02:13:42.268Z,100009.50
2022-12-14T02:16:11.033Z,100010.22
2022-12-14T02:18:41.496Z,100015.20
2022-12-14T02:21:44.138Z,100008.48
2022-12-14T02:24:56.212Z,100017.52
2022-12-14T02:28:10.209Z,100021.17
2022-12-14T02:30:40.940Z,100026.78
2022-12-14T02:33:30.785Z,100030.80
2022-12-14T02:36:23.168Z,100038.37
2022-12-14T02:39:18.658Z,100046.04
2022-12-14T02:42:04.900Z,100045.79
2022-12-14T02:44:55.522Z,100050.92
2022-12-14T02:47:36.408Z,100046.78
2022-12-14T02:50:29.525Z,100048.02
2022-12-14T02:53:23.880Z,100052.16
2022-12-14T02:55:59.462Z,100047.16
2022-12-14T02:58:41.769Z,100053.02
2022-12-14T03:01:14.150Z,100061.20
2022-12-14T03:03:43.590Z,100056.31
2022-12-14T03:06:21.028Z,100063.52
2022-12-14T03:08:50.443Z,100063.40
2022-12-14T03:11:23.295Z,100070.84
2022-12-14T03:13:59.637Z,100073.66
2022-12-14T03:16:33.800Z,100068.77
2022-12-14T03:19:20.263Z,100071.09
2022-12-14T03:21:54.310Z,100079.75
2022-12-14T03:24:34.750Z,100081.33
2022-12-14T03:27:10.965Z,100076.20
2022-12-14T03:29:50.058Z,100084.25
2022-12-14T03:32:22.492Z,100084.98
2022-12-14T03:35:01.970Z,100086.33
2022-12-14T03:38:12.700Z,100092.67
2022-12-14T03:41:17.799Z,100091.33
2022-12-14T03:44:01.270Z,100094.98
2022-12-14T03:47:13.196Z,100100.22
2022-12-14T03:50:00.047Z,100091.06
2022-12-14T03:52:44.883Z,100101.08
2022-12-14T03:55:31.018Z,100091.20
2022-12-14T03:58:23.594Z,100099.62
2022-12-14T04:01:19.274Z,100095.48
2022-12-14T04:04:18.055Z,100095.13
2022-12-14T04:07:07.383Z,100098.17
2022-12-14T04:10:01.378Z,100102.56
2022-12-14T04:12:57.723Z,100107.20
2022-12-14T04:15:53.007Z,100106.11
2022-12-14T04:18:44.996Z,100113.30
2022-12-14T04:21:42.162Z,100115.98
2022-12-14T04:24:47.034Z,100117.08
2022-12-14T04:27:24.508Z,100122.94
2022-12-14T04:29:56.604Z,100134.15
2022-12-14T04:32:52.773Z,100131.34
2022-12-14T04:35:40.798Z,100138.17
2022-12-14T04:38:20.262Z,100145.61
2022-12-14T04:40:52.955Z,100151.05
2022-12-14T04:43:26.323Z,100151.78
2022-12-14T04:45:59.247Z,100154.70
2022-12-14T04:48:39.264Z,100162.98
2022-12-14T04:51:49.261Z,100162.98
2022-12-14T04:54:55.634Z,100164.44
2022-12-14T04:57:46.280Z,100168.09
2022-12-14T05:00:16.795Z,100172.11
2022-12-14T05:03:15.818Z,100179.41
2022-12-14T05:06:15.054Z,100178.92
2022-12-14T05:09:04.357Z,100188.91
2022-12-14T05:12:12.250Z,100183.55
2022-12-14T05:14:49.428Z,100195.25
2022-12-14T05:17:18.587Z,100197.80
2022-12-14T05:19:48.932Z,100200.70
2022-12-14T05:22:18.576Z,100208.50
2022-12-14T05:24:47.458Z,100199.84
2022-12-14T05:27:16.574Z,100207.63
2022-12-14T05:29:45.345Z,100216.64
2022-12-14T05:32:14.249Z,100220.17
2022-12-14T05:34:45.187Z,100222.34
2022-12-14T05:37:18.167Z,100233.55
2022-12-14T05:39:44.579Z,100231.23
2022-12-14T05:42:13.689Z,100231.49
2022-12-14T05:44:42.927Z,100243.19
2022-12-14T05:47:11.703Z,100254.50
2022-12-14T05:49:40.355Z,100253.39
2022-12-14T05:52:09.086Z,100259.23
2022-12-14T05:54:38.183Z,100261.43
2022-12-14T05:57:07.116Z,100267.27
2022-12-14T05:59:36.375Z,100264.11
2022-12-14T06:02:06.319Z,100276.17
2022-12-14T06:04:36.093Z,100276.66
2022-12-14T06:07:05.918Z,100287.38
2022-12-14T06:09:35.321Z,100281.64
2022-12-14T06:12:05.094Z,100275.42
2022-12-14T06:14:33.683Z,100284.20
2022-12-14T06:17:02.531Z,100291.05
2022-12-14T06:19:31.389Z,100292.53
2022-12-14T06:22:01.129Z,100294.02
2022-12-14T06:24:30.284Z,100297.06
2022-12-14T06:26:59.599Z,100304.02
2022-12-14T06:29:29.285Z,100308.53
2022-12-14T06:31:58.465Z,100312.80
2022-12-14T06:34:28.744Z,100318.54
2022-12-14T06:36:58.554Z,100309.75
2022-12-14T06:39:28.652Z,100317.68
2022-12-14T06:41:59.235Z,100317.68
2022-12-14T06:44:30.811Z,100315.37
2022-12-14T06:47:00.578Z,100321.24
2022-12-14T06:49:29.979Z,100329.77
2022-12-14T06:51:59.064Z,100335.77
2022-12-14T06:54:30.467Z,100338.81
2022-12-14T06:56:59.212Z,100349.53
2022-12-14T06:59:28.329Z,100350.02
2022-12-14T07:01:57.157Z,100354.05
2022-12-14T07:04:28.969Z,100350.51
2022-12-14T07:06:58.661Z,100357.35
2022-12-14T07:09:27.658Z,100371.27
2022-12-14T07:11:56.857Z,100365.08
2022-12-14T07:14:26.227Z,100371.55
2022-12-14T07:16:55.742Z,100370.59
2022-12-14T07:19:24.757Z,100382.34
2022-12-14T07:21:53.639Z,100382.97
2022-12-14T07:24:23.187Z,100379.80
2022-12-14T07:26:53.499Z,100391.88
2022-12-14T07:29:25.733Z,100397.13
2022-12-14T07:31:56.283Z,100400.30
2022-12-14T07:34:26.529Z,100404.91
2022-12-14T07:36:55.609Z,100404.20
2022-12-14T07:39:25.876Z,100407.14
2022-12-14T07:41:55.022Z,100412.77
2022-12-14T07:44:24.121Z,100413.27
2022-12-14T07:46:55.115Z,100414.50
2022-12-14T07:49:24.672Z,100417.18
2022-12-14T07:51:54.009Z,100419.98
2022-12-14T07:54:23.388Z,100423.41
2022-12-14T10:16:52.280Z,100478.93
2022-12-14T10:19:38.805Z,100479.17
2022-12-14T10:22:16.720Z,100473.80
2022-12-14T10:24:56.216Z,100469.28
2022-12-14T10:27:27.488Z,100473.11
2022-12-14T10:30:06.926Z,100479.59
2022-12-14T10:32:39.978Z,100475.44
2022-12-14T10:35:15.802Z,100473.84
2022-12-14T10:37:53.464Z,100479.70
2022-12-14T10:40:34.537Z,100487.77
2022-12-14T10:43:08.897Z,100487.77
2022-12-14T10:45:47.152Z,100489.72
2022-12-14T10:48:45.682Z,100490.20
2022-12-14T10:51:37.098Z,100493.22
2022-12-14T10:54:41.488Z,100491.27
2022-12-14T10:57:12.395Z,100484.91
2022-12-14T10:59:55.609Z,100478.81
2022-12-14T11:02:22.334Z,100483.70
2022-12-14T11:05:03.500Z,100484.06
2022-12-14T11:07:38.582Z,100486.38
2022-12-14T11:10:28.387Z,100484.67
2022-12-14T11:13:16.835Z,100487.23
2022-12-14T11:15:49.237Z,100480.56
2022-12-14T11:18:30.243Z,100487.65
2022-12-14T11:21:06.001Z,100492.05
2022-12-14T11:23:40.866Z,100491.80
2022-12-14T11:26:17.469Z,100488.27
2022-12-14T11:28:52.378Z,100481.66
2022-12-14T11:31:48.141Z,100482.52
2022-12-14T11:34:45.771Z,100485.70
2022-12-14T11:37:30.828Z,100479.83
2022-12-14T11:40:05.457Z,100493.64
2022-12-14T11:42:45.546Z,100490.22
2022-12-14T11:45:30.557Z,100499.88
2022-12-14T11:48:28.761Z,100502.08
2022-12-14T11:51:22.492Z,100497.31
2022-12-14T11:54:06.059Z,100506.36
2022-12-14T11:56:40.478Z,100510.63
2022-12-14T11:59:14.431Z,100516.86
2022-12-14T12:02:07.616Z,100517.59
2022-12-14T12:04:50.420Z,100525.29
2022-12-14T12:07:36.249Z,100526.02
2022-12-14T12:10:17.994Z,100527.60
2022-12-14T12:13:12.758Z,100536.39
2022-12-14T12:15:58.846Z,100539.45
2022-12-14T12:18:34.788Z,100541.27
2022-12-14T12:21:22.838Z,100542.13
2022-12-14T12:24:26.572Z,100546.05
2022-12-14T12:27:06.169Z,100558.39
2022-12-14T12:30:20.521Z,100555.59
2022-12-14T12:33:01.015Z,100555.34
2022-12-14T12:35:55.985Z,100566.59
2022-12-14T12:38:49.502Z,100563.90
2022-12-14T12:41:33.942Z,100565.24
2022-12-14T12:44:35.490Z,100576.25
2022-12-14T12:47:46.563Z,100573.07
2022-12-14T12:50:23.173Z,100578.33
2022-12-14T12:53:15.199Z,100581.38
2022-12-14T12:55:55.506Z,100575.63
2022-12-14T12:58:36.580Z,100576.00
2022-12-14T13:01:24.948Z,100580.39
2022-12-14T13:04:21.462Z,100582.84
2022-12-14T13:07:13.818Z,100577.95
2022-12-14T13:10:08.062Z,100589.42
2022-12-14T13:12:48.566Z,100595.17
2022-12-14T13:15:42.551Z,100600.91
2022-12-14T13:18:56.600Z,100596.63
2022-12-14T13:21:16.492Z,100599.92
2022-12-14T13:23:45.850Z,100596.95
2022-12-14T13:26:57.653Z,100600.61
2022-12-14T13:29:44.487Z,100598.16
2022-12-14T13:32:44.588Z,100607.93
2022-12-14T13:35:38.614Z,100602.19
2022-12-14T13:38:39.720Z,100601.94
2022-12-14T13:41:44.731Z,100607.89
2022-12-14T13:44:37.441Z,100609.44
2022-12-14T13:47:21.128Z,100610.39
2022-12-14T13:52:42.122Z,100619.97
2022-12-14T13:56:16.968Z,100619.45
2022-12-14T13:58:56.247Z,100626.02
2022-12-14T14:02:00.857Z,100627.81
2022-12-14T14:04:44.187Z,100631.09
2022-12-14T14:07:32.916Z,100629.80
2022-12-14T14:10:13.559Z,100630.98
2022-12-14T14:12:47.973Z,100638.14
2022-12-14T14:16:04.013Z,100634.94
2022-12-14T14:18:20.330Z,100640.90
2022-12-14T14:21:26.994Z,100645.00
2022-12-14T14:24:16.742Z,100647.67
2022-12-14T14:27:18.967Z,100649.34
2022-12-14T14:30:15.735Z,100648.77
2022-12-14T14:32:47.696Z,100656.73
2022-12-14T14:35:30.847Z,100660.44
2022-12-14T14:38:02.703Z,100658.04
2022-12-14T14:41:06.598Z,100656.80
2022-12-14T14:43:20.345Z,100660.94
2022-12-14T14:45:54.489Z,100668.13
2022-12-14T14:48:48.136Z,100671.77
2022-12-14T14:51:29.640Z,100667.86
2022-12-14T14:55:06.526Z,100676.38
2022-12-14T14:57:29.518Z,100672.47
2022-12-14T15:00:22.022Z,100677.13
2022-12-14T15:03:10.096Z,100672.04
2022-12-14T15:06:16.200Z,100682.55
2022-12-14T15:10:02.814Z,100679.50
2022-12-14T15:16:09.548Z,100673.97
2022-12-14T15:18:43.879Z,100682.92
2022-12-14T15:21:19.576Z,100685.06
2022-12-14T15:24:15.449Z,100676.59
2022-12-14T15:26:47.495Z,100681.03
2022-12-14T15:29:26.313Z,100675.02
2022-12-14T15:32:03.331Z,100680.75
2022-12-14T15:34:53.664Z,100677.11
2022-12-14T15:37:59.986Z,100688.91
2022-12-14T15:40:54.427Z,100687.29
2022-12-14T15:44:08.779Z,100695.60
2022-12-14T15:47:01.497Z,100686.12
2022-12-14T15:50:04.310Z,100690.14
2022-12-14T15:52:56.715Z,100688.05
2022-12-14T15:55:36.804Z,100689.17
2022-12-14T15:58:39.151Z,100688.97
2022-12-14T16:01:54.331Z,100692.72
2022-12-14T16:04:49.375Z,100701.07
2022-12-14T19:26:09.456Z,100652.50
2022-12-14T19:28:40.763Z,100644.39
2022-12-14T19:31:13.443Z,100630.73
2022-12-14T19:33:43.139Z,100630.55
2022-12-14T19:36:12.681Z,100630.45
2022-12-14T19:38:42.529Z,100623.55
2022-12-14T19:41:12.119Z,100617.99
2022-12-14T19:43:42.358Z,100617.03
2022-12-14T19:46:13.206Z,100616.72
2022-12-14T19:48:49.562Z,100617.86
2022-12-14T19:51:20.340Z,100611.64
2022-12-14T19:53:49.677Z,100611.64
2022-12-14T19:56:19.522Z,100618.51
2022-12-14T19:58:50.052Z,100610.64
2022-12-14T20:01:19.368Z,100614.94
2022-12-14T20:03:50.308Z,100614.14
2022-12-14T20:06:19.423Z,100613.56
2022-12-14T20:08:49.212Z,100617.58
2022-12-14T20:11:20.388Z,100619.77
2022-12-14T20:13:58.170Z,100622.45
2022-12-14T20:16:25.487Z,100624.65
2022-12-14T20:18:54.409Z,100618.70
2022-12-14T20:21:23.628Z,100632.89
2022-12-14T20:23:52.829Z,100626.27
2022-12-14T20:26:22.623Z,100628.08
2022-12-14T20:28:54.413Z,100626.56
2022-12-14T20:31:26.564Z,100633.06
2022-12-14T20:33:56.026Z,100625.08
2022-12-14T20:36:25.887Z,100627.17
2022-12-14T20:38:58.187Z,100631.84
2022-12-14T20:41:28.062Z,100624.55
2022-12-14T20:43:57.397Z,100639.67
2022-12-14T20:46:38.857Z,100636.51
2022-12-14T20:49:17.021Z,100634.69
2022-12-14T20:51:47.770Z,100626.17
2022-12-14T20:54:22.892Z,100627.02
2022-12-14T20:56:53.814Z,100633.14
2022-12-14T20:59:24.462Z,100632.06
2022-12-14T21:01:56.562Z,100631.00
2022-12-14T21:04:28.094Z,100631.96
2022-12-14T21:06:57.306Z,100631.96
2022-12-14T21:09:26.602Z,100633.89
2022-12-14T21:12:15.196Z,100641.83
2022-12-14T21:14:48.033Z,100643.71
2022-12-14T21:17:21.517Z,100634.22
2022-12-14T21:19:51.492Z,100643.98
2022-12-14T21:22:23.838Z,100645.69
2022-12-14T21:25:03.732Z,100642.05
2022-12-14T21:27:27.928Z,100638.19
2022-12-14T21:29:57.213Z,100635.13
2022-12-14T21:32:27.070Z,100620.88
2022-12-14T21:34:57.470Z,100605.38
2022-12-14T21:37:27.920Z,100597.28
2022-12-14T21:39:57.719Z,100590.95
2022-12-14T21:42:27.959Z,100582.80
2022-12-14T21:44:58.163Z,100574.28
2022-12-14T21:47:29.490Z,100559.43
2022-12-14T21:49:59.725Z,100564.09
2022-12-14T21:52:31.927Z,100558.13
2022-12-14T21:55:03.734Z,100546.34
2022-12-14T21:57:53.425Z,100547.56
2022-12-14T22:00:23.947Z,100548.91
2022-12-14T22:02:54.842Z,100550.36
2022-12-14T22:05:25.515Z,100553.90
2022-12-14T22:07:54.840Z,100545.86
2022-12-14T22:10:25.272Z,100523.92
2022-12-14T22:12:54.956Z,100518.56
2022-12-14T22:15:25.657Z,100525.16
2022-12-14T22:17:55.487Z,100523.22
2022-12-14T22:20:24.798Z,100529.33
2022-12-14T22:22:54.497Z,100532.60
2022-12-14T22:25:24.660Z,100522.25
2022-12-14T22:27:53.884Z,100512.76
2022-12-14T22:30:28.495Z,100524.23
2022-12-14T22:32:56.148Z,100528.14
2022-12-14T22:35:25.848Z,100515.11
2022-12-14T22:37:56.091Z,100515.74
2022-12-14T22:40:26.287Z,100505.28
2022-12-14T22:42:55.783Z,100508.70
2022-12-14T22:45:25.708Z,100503.23
2022-12-14T22:47:55.047Z,100514.73
2022-12-14T22:50:24.537Z,100505.91
2022-12-14T22:52:53.669Z,100500.36
2022-12-14T22:55:24.436Z,100486.84
2022-12-14T22:57:53.763Z,100481.84
2022-12-14T23:00:22.774Z,100489.18
2022-12-14T23:02:52.313Z,100487.13
2022-12-14T23:05:22.454Z,100478.11
2022-12-14T23:07:53.472Z,100471.03
2022-12-14T23:10:43.032Z,100470.32
2022-12-14T23:13:31.872Z,100468.87
2022-12-14T23:16:20.184Z,100455.23
2022-12-14T23:19:08.239Z,100443.66
2022-12-14T23:21:57.749Z,100436.61
2022-12-14T23:24:48.170Z,100443.58
2022-12-14T23:27:36.066Z,100451.52
2022-12-14T23:30:25.631Z,100445.06
2022-12-14T23:33:15.723Z,100444.95
2022-12-14T23:36:04.269Z,100439.95
2022-12-14T23:38:53.254Z,100438.13
2022-12-14T23:41:42.023Z,100438.98
2022-12-14T23:44:30.437Z,100449.48
2022-12-14T23:47:18.376Z,100447.80
2022-12-14T23:50:06.620Z,100447.44
2022-12-14T23:52:59.476Z,100434.28
2022-12-14T23:55:47.009Z,100427.81
